Time;durP1;ratioP1;P1;durP2;ratioP2;P2;SDS_P1;SDS_P2;PMS_P1;PMS_P2;Temp;Humidity;BMP_temperature;BMP_pressure;BME280_temperature;BME280_humidity;BME280_pressure;Samples;Min_cycle;Max_cycle;Signal;HPM_P1;HPM_P2
2022/06/30 00:01:57;;;;;;;;;;;20.80;99.90;;;;;;4997833;28;19906;-74
2022/06/30 00:04:22;;;;;;;;;;;20.70;99.90;;;;;;4997637;28;20350;-73
2022/06/30 00:06:48;;;;;;;;;;;20.70;99.90;;;;;;4996578;28;19920;-73
2022/06/30 00:09:13;;;;;;;;;;;20.70;99.90;;;;;;5001645;28;19913;-73
2022/06/30 00:11:41;;;;;;;;;;;20.70;99.90;;;;;;5006595;28;19909;-74
2022/06/30 00:14:06;;;;;;;;;;;20.60;99.90;;;;;;5011259;28;19906;-73
2022/06/30 00:16:32;;;;;;;;;;;20.60;99.90;;;;;;5012420;28;19912;-73
2022/06/30 00:18:58;;;;;;;;;;;20.60;99.90;;;;;;5011071;28;19913;-74
2022/06/30 00:21:23;;;;;;;;;;;20.60;99.90;;;;;;5002670;28;20364;-73
2022/06/30 00:23:49;;;;;;;;;;;20.60;99.90;;;;;;4996909;28;19906;-74
2022/06/30 00:26:15;;;;;;;;;;;20.60;99.90;;;;;;5006200;28;19906;-74
2022/06/30 00:28:43;;;;;;;;;;;20.60;99.90;;;;;;5005296;28;20091;-74
2022/06/30 00:31:09;;;;;;;;;;;20.50;99.90;;;;;;5003579;28;19967;-74
2022/06/30 00:33:35;;;;;;;;;;;20.50;99.90;;;;;;4996845;28;19996;-73
2022/06/30 00:36:00;;;;;;;;;;;20.50;99.90;;;;;;4996444;28;19937;-73
2022/06/30 00:38:26;;;;;;;;;;;20.40;99.90;;;;;;4994924;28;19913;-73
2022/06/30 00:40:52;;;;;;;;;;;20.40;99.90;;;;;;4996071;28;19910;-73
2022/06/30 00:43:17;;;;;;;;;;;20.40;99.90;;;;;;4995402;28;19912;-74
2022/06/30 00:45:43;;;;;;;;;;;20.40;99.90;;;;;;4996233;28;19906;-74
2022/06/30 00:48:10;;;;;;;;;;;20.40;99.90;;;;;;4991845;28;19914;-73
2022/06/30 00:50:36;;;;;;;;;;;20.40;99.90;;;;;;4995347;28;20004;-74
2022/06/30 00:53:05;;;;;;;;;;;20.30;99.90;;;;;;4994039;28;20008;-74
2022/06/30 00:55:31;;;;;;;;;;;20.20;99.90;;;;;;4992540;28;20008;-74
2022/06/30 00:57:59;;;;;;;;;;;20.20;99.90;;;;;;4995251;28;19905;-74
2022/06/30 01:00:26;;;;;;;;;;;20.10;99.90;;;;;;4995106;28;19905;-73
2022/06/30 01:02:52;;;;;;;;;;;20.00;99.90;;;;;;4995246;28;20375;-74
2022/06/30 01:05:18;;;;;;;;;;;20.00;99.90;;;;;;5010418;28;19913;-73
2022/06/30 01:07:44;;;;;;;;;;;20.00;99.90;;;;;;4995237;28;19913;-74
2022/06/30 01:12:54;;;;;;;;;;;20.00;99.90;;;;;;4995083;28;19973;-72
2022/06/30 01:15:20;;;;;;;;;;;20.00;99.90;;;;;;4994900;28;19906;-73
2022/06/30 01:17:46;;;;;;;;;;;19.90;99.90;;;;;;5001735;28;20339;-73
2022/06/30 01:20:12;;;;;;;;;;;19.80;99.90;;;;;;4995116;28;19905;-73
2022/06/30 01:22:38;;;;;;;;;;;19.90;99.90;;;;;;4994265;28;19913;-73
2022/06/30 01:25:05;;;;;;;;;;;19.80;99.90;;;;;;4995227;28;19913;-74
2022/06/30 01:27:31;;;;;;;;;;;19.80;99.90;;;;;;4997563;28;20053;-74
2022/06/30 01:29:58;;;;;;;;;;;19.80;99.90;;;;;;4994743;28;19964;-74
2022/06/30 01:32:24;;;;;;;;;;;19.70;99.90;;;;;;4993228;28;19909;-74
2022/06/30 01:34:50;;;;;;;;;;;19.70;99.90;;;;;;4994931;28;19913;-74
2022/06/30 01:37:15;;;;;;;;;;;19.70;99.90;;;;;;5009819;28;19906;-73
2022/06/30 01:39:41;;;;;;;;;;;19.70;99.90;;;;;;4994534;28;19937;-73
2022/06/30 01:42:07;;;;;;;;;;;19.70;99.90;;;;;;4994676;28;19989;-73
2022/06/30 01:44:32;;;;;;;;;;;19.70;99.90;;;;;;4994445;28;20292;-74
2022/06/30 01:46:58;;;;;;;;;;;19.70;99.90;;;;;;4993617;28;19977;-74
2022/06/30 01:49:23;;;;;;;;;;;19.70;99.90;;;;;;4993567;28;20426;-72
2022/06/30 01:51:49;;;;;;;;;;;19.70;99.90;;;;;;4993413;28;19971;-73
2022/06/30 01:54:14;;;;;;;;;;;19.60;99.90;;;;;;4994524;28;19984;-74
2022/06/30 01:56:40;;;;;;;;;;;19.60;99.90;;;;;;4994828;28;19913;-74
2022/06/30 01:59:05;;;;;;;;;;;19.60;99.90;;;;;;4994883;28;20004;-74
2022/06/30 02:01:31;;;;;;;;;;;19.60;99.90;;;;;;4994680;28;19996;-74
2022/06/30 02:04:46;;;;;;;;;;;19.50;99.90;;;;;;4994631;28;19912;-74
2022/06/30 02:06:43;;;;;;;;;;;19.50;99.90;;;;;;4993333;28;19909;-74
2022/06/30 02:09:08;;;;;;;;;;;19.50;99.90;;;;;;4995330;28;19932;-74
2022/06/30 02:11:34;;;;;;;;;;;19.50;99.90;;;;;;4993849;28;19945;-74
2022/06/30 02:14:00;;;;;;;;;;;19.50;99.90;;;;;;4993611;28;19912;-74
2022/06/30 02:16:25;;;;;;;;;;;19.50;99.90;;;;;;4992871;28;19936;-75
2022/06/30 02:18:51;;;;;;;;;;;19.50;99.90;;;;;;5007676;28;19909;-74
2022/06/30 02:21:17;;;;;;;;;;;19.50;99.90;;;;;;5008092;28;19917;-74
2022/06/30 02:23:43;;;;;;;;;;;19.40;99.90;;;;;;4994028;28;19909;-73
2022/06/30 02:26:09;;;;;;;;;;;19.40;99.90;;;;;;5001746;28;20322;-74
2022/06/30 02:28:34;;;;;;;;;;;19.40;99.90;;;;;;5003597;28;19913;-74
2022/06/30 02:31:00;;;;;;;;;;;19.40;99.90;;;;;;4998527;28;19960;-74
2022/06/30 02:33:25;;;;;;;;;;;19.40;99.90;;;;;;5005698;28;19906;-74
2022/06/30 02:35:51;;;;;;;;;;;19.40;99.90;;;;;;4995047;28;19913;-74
2022/06/30 02:38:16;;;;;;;;;;;19.30;99.90;;;;;;4995713;28;19991;-74
2022/06/30 02:40:42;;;;;;;;;;;19.30;99.90;;;;;;5003308;28;19913;-74
2022/06/30 02:43:07;;;;;;;;;;;19.30;99.90;;;;;;4998208;28;19929;-75
2022/06/30 02:45:33;;;;;;;;;;;19.30;99.90;;;;;;5016487;28;19914;-73
2022/06/30 02:47:59;;;;;;;;;;;19.30;99.90;;;;;;5009376;28;19905;-73
2022/06/30 02:50:24;;;;;;;;;;;19.20;99.90;;;;;;5009658;28;20289;-73
2022/06/30 02:52:50;;;;;;;;;;;19.30;99.90;;;;;;5009688;28;19941;-73
2022/06/30 02:55:15;;;;;;;;;;;19.20;99.90;;;;;;4995352;28;19912;-74
2022/06/30 02:57:41;;;;;;;;;;;19.10;99.90;;;;;;4994424;28;19909;-73
2022/06/30 03:00:08;;;;;;;;;;;19.00;99.90;;;;;;4994301;28;20383;-74
2022/06/30 03:02:34;;;;;;;;;;;18.90;99.90;;;;;;4993804;28;19914;-74
2022/06/30 03:04:59;;;;;;;;;;;18.90;99.90;;;;;;4993748;28;20356;-73
2022/06/30 03:07:25;;;;;;;;;;;18.90;99.90;;;;;;4997482;28;20356;-73
2022/06/30 03:09:50;;;;;;;;;;;18.70;99.90;;;;;;4997920;28;20013;-73
2022/06/30 03:12:16;;;;;;;;;;;18.70;99.90;;;;;;4998062;28;19917;-74
2022/06/30 03:14:41;;;;;;;;;;;18.50;99.90;;;;;;5005152;28;20021;-74
2022/06/30 03:17:07;;;;;;;;;;;18.50;99.90;;;;;;5007163;28;19905;-73
2022/06/30 03:19:32;;;;;;;;;;;18.40;99.90;;;;;;4998853;28;20363;-75
2022/06/30 03:21:58;;;;;;;;;;;18.40;99.90;;;;;;4997653;28;20213;-73
2022/06/30 03:24:23;;;;;;;;;;;18.40;99.90;;;;;;5011677;28;19924;-74
2022/06/30 03:26:49;;;;;;;;;;;18.40;99.90;;;;;;4997594;28;19929;-74
2022/06/30 03:29:15;;;;;;;;;;;18.30;99.90;;;;;;4998306;28;19980;-74
2022/06/30 03:31:41;;;;;;;;;;;18.30;99.90;;;;;;5012813;22;19963;-82
2022/06/30 03:34:07;;;;;;;;;;;18.30;99.90;;;;;;5027097;22;19922;-54
2022/06/30 03:36:33;;;;;;;;;;;18.30;99.90;;;;;;4983751;28;19933;-55
2022/06/30 03:38:58;;;;;;;;;;;18.30;99.90;;;;;;4980613;28;19917;-56
2022/06/30 03:41:25;;;;;;;;;;;18.30;99.90;;;;;;4987161;28;19906;-56
2022/06/30 03:43:50;;;;;;;;;;;18.30;99.90;;;;;;4987003;28;19956;-56
2022/06/30 03:46:16;;;;;;;;;;;18.30;99.90;;;;;;4997034;28;19905;-56
2022/06/30 03:48:41;;;;;;;;;;;18.20;99.90;;;;;;4997253;28;20370;-56
2022/06/30 03:51:07;;;;;;;;;;;18.20;99.90;;;;;;4997356;28;19909;-56
2022/06/30 03:53:32;;;;;;;;;;;18.20;99.90;;;;;;4997134;28;19905;-57
2022/06/30 03:55:58;;;;;;;;;;;18.20;99.90;;;;;;4995432;28;19906;-57
2022/06/30 03:58:24;;;;;;;;;;;18.20;99.90;;;;;;4996034;28;19910;-56
2022/06/30 04:00:49;;;;;;;;;;;18.10;99.90;;;;;;4995516;28;19906;-56
2022/06/30 04:03:15;;;;;;;;;;;18.10;99.90;;;;;;4996639;28;19956;-55
2022/06/30 04:05:40;;;;;;;;;;;18.20;99.90;;;;;;4996105;28;19913;-56
2022/06/30 04:08:07;;;;;;;;;;;18.10;99.90;;;;;;4996705;28;19906;-56
2022/06/30 04:10:32;;;;;;;;;;;18.10;99.90;;;;;;4996389;28;20363;-56
2022/06/30 04:12:58;;;;;;;;;;;18.10;99.90;;;;;;4996641;28;19906;-56
2022/06/30 04:15:23;;;;;;;;;;;18.10;99.90;;;;;;4996656;28;19910;-52
2022/06/30 04:17:49;;;;;;;;;;;18.10;99.90;;;;;;4995551;28;19906;-56
2022/06/30 04:20:17;;;;;;;;;;;18.10;99.90;;;;;;4996467;28;20355;-53
2022/06/30 04:22:44;;;;;;;;;;;18.10;99.90;;;;;;4996087;28;19912;-54
2022/06/30 04:25:09;;;;;;;;;;;18.10;99.90;;;;;;4996264;28;19912;-54
2022/06/30 04:27:35;;;;;;;;;;;18.20;99.90;;;;;;4996378;28;20414;-53
2022/06/30 04:30:00;;;;;;;;;;;18.30;99.90;;;;;;4996013;28;20283;-56
2022/06/30 04:32:38;;;;;;;;;;;18.30;99.90;;;;;;4996051;28;19968;-55
2022/06/30 04:35:07;;;;;;;;;;;18.30;99.90;;;;;;4996870;28;19906;-54
2022/06/30 04:37:33;;;;;;;;;;;18.30;99.90;;;;;;4996286;28;19906;-56
2022/06/30 04:42:42;;;;;;;;;;;18.40;99.90;;;;;;4996877;28;19912;-55
2022/06/30 04:45:08;;;;;;;;;;;18.40;99.90;;;;;;4996242;28;19913;-55
2022/06/30 04:47:35;;;;;;;;;;;18.40;99.90;;;;;;4996179;28;19968;-54
2022/06/30 04:50:01;;;;;;;;;;;18.50;99.90;;;;;;4996073;28;19913;-52
2022/06/30 04:52:26;;;;;;;;;;;18.50;99.90;;;;;;4995704;28;19910;-54
2022/06/30 04:54:52;;;;;;;;;;;18.50;99.90;;;;;;4995956;28;19906;-54
2022/06/30 04:57:17;;;;;;;;;;;18.70;99.90;;;;;;4997018;28;19913;-58
2022/06/30 04:59:43;;;;;;;;;;;18.70;99.90;;;;;;4997780;28;19913;-58
2022/06/30 05:02:08;;;;;;;;;;;18.70;99.90;;;;;;4996715;28;19952;-55
2022/06/30 05:04:34;;;;;;;;;;;18.80;99.90;;;;;;4995730;28;19910;-55
2022/06/30 05:06:59;;;;;;;;;;;18.90;99.90;;;;;;4995471;28;20363;-56
2022/06/30 05:09:25;;;;;;;;;;;18.90;99.90;;;;;;4995791;28;20008;-56
2022/06/30 05:11:50;;;;;;;;;;;19.00;99.90;;;;;;4995719;28;19909;-59
2022/06/30 05:14:16;;;;;;;;;;;19.10;99.90;;;;;;4995669;28;19948;-59
2022/06/30 05:16:41;;;;;;;;;;;19.20;99.90;;;;;;4995253;28;19906;-58
2022/06/30 05:19:07;;;;;;;;;;;19.30;99.90;;;;;;4995444;28;19906;-56
2022/06/30 05:21:32;;;;;;;;;;;19.30;99.90;;;;;;4995373;28;19912;-57
2022/06/30 05:26:44;;;;;;;;;;;19.60;99.90;;;;;;4994199;28;19909;-58
2022/06/30 05:29:09;;;;;;;;;;;19.60;99.90;;;;;;4994950;28;20274;-57
2022/06/30 05:31:35;;;;;;;;;;;19.70;99.90;;;;;;4995275;28;19936;-57
2022/06/30 05:34:01;;;;;;;;;;;19.80;99.90;;;;;;4995432;28;19913;-58
2022/06/30 05:36:26;;;;;;;;;;;19.90;99.90;;;;;;4995485;28;19929;-57
2022/06/30 05:38:52;;;;;;;;;;;20.00;99.90;;;;;;4995510;28;19956;-58
2022/06/30 05:41:17;;;;;;;;;;;20.20;99.90;;;;;;4995799;28;19914;-58
2022/06/30 05:43:43;;;;;;;;;;;20.30;99.90;;;;;;4995975;28;20299;-56
2022/06/30 05:46:08;;;;;;;;;;;20.30;99.90;;;;;;4995769;28;19913;-59
2022/06/30 05:48:34;;;;;;;;;;;20.40;99.90;;;;;;5010627;28;19913;-58
2022/06/30 05:51:00;;;;;;;;;;;20.50;99.90;;;;;;4995220;28;19921;-58
2022/06/30 05:53:25;;;;;;;;;;;20.60;99.90;;;;;;4995642;28;19913;-57
2022/06/30 05:55:51;;;;;;;;;;;20.60;99.90;;;;;;4995538;28;19906;-57
2022/06/30 05:58:17;;;;;;;;;;;20.70;99.90;;;;;;4995343;28;20244;-59
2022/06/30 06:00:42;;;;;;;;;;;20.80;99.90;;;;;;4995097;28;19949;-57
2022/06/30 06:03:08;;;;;;;;;;;20.90;99.90;;;;;;4995298;28;19906;-58
2022/06/30 06:05:33;;;;;;;;;;;21.00;99.90;;;;;;4995252;28;19932;-58
2022/06/30 06:08:06;;;;;;;;;;;21.00;99.90;;;;;;4996377;28;19906;-58
2022/06/30 06:10:31;;;;;;;;;;;21.10;99.90;;;;;;5010169;28;19906;-57
2022/06/30 06:12:57;;;;;;;;;;;21.20;99.90;;;;;;4994828;28;20441;-57
2022/06/30 06:15:22;;;;;;;;;;;21.30;99.90;;;;;;4995668;28;19964;-58
2022/06/30 06:17:48;;;;;;;;;;;21.50;99.90;;;;;;4995074;28;19910;-58
2022/06/30 06:20:15;;;;;;;;;;;21.50;99.90;;;;;;4995129;28;19910;-58
2022/06/30 06:22:41;;;;;;;;;;;21.60;99.90;;;;;;4995694;28;19913;-58
2022/06/30 06:25:07;;;;;;;;;;;21.70;99.90;;;;;;4994825;28;19909;-58
2022/06/30 06:27:34;;;;;;;;;;;21.80;99.90;;;;;;5009553;28;19913;-57
2022/06/30 06:30:00;;;;;;;;;;;21.90;99.90;;;;;;4994968;28;19905;-58
2022/06/30 06:32:26;;;;;;;;;;;22.00;99.90;;;;;;4994827;28;20012;-59
2022/06/30 06:34:51;;;;;;;;;;;22.10;99.90;;;;;;4994566;28;19906;-58
2022/06/30 06:37:17;;;;;;;;;;;22.20;99.90;;;;;;4994972;28;19909;-57
2022/06/30 06:39:42;;;;;;;;;;;22.20;99.90;;;;;;4994783;28;19906;-57
2022/06/30 06:42:08;;;;;;;;;;;22.30;99.90;;;;;;4998074;28;19910;-58
2022/06/30 06:44:33;;;;;;;;;;;22.40;99.90;;;;;;4998672;28;19909;-58
2022/06/30 06:46:59;;;;;;;;;;;22.50;99.90;;;;;;4998489;28;19905;-58
2022/06/30 06:49:24;;;;;;;;;;;22.70;99.90;;;;;;4999071;28;20013;-58
2022/06/30 06:51:50;;;;;;;;;;;22.80;99.90;;;;;;4996524;28;19910;-57
2022/06/30 06:54:15;;;;;;;;;;;23.00;99.90;;;;;;4998117;28;19929;-58
2022/06/30 06:56:41;;;;;;;;;;;23.10;99.90;;;;;;4998215;28;19905;-58
2022/06/30 06:59:06;;;;;;;;;;;23.20;99.90;;;;;;4998260;28;19905;-58
2022/06/30 07:01:33;;;;;;;;;;;23.30;99.90;;;;;;5013417;28;19913;-58
2022/06/30 07:03:58;;;;;;;;;;;23.40;99.90;;;;;;4998463;28;19972;-58
2022/06/30 07:06:24;;;;;;;;;;;23.50;99.90;;;;;;4998535;28;20339;-58
2022/06/30 07:08:49;;;;;;;;;;;23.50;99.90;;;;;;4998844;28;19906;-58
2022/06/30 07:11:15;;;;;;;;;;;23.50;99.90;;;;;;4996762;28;19916;-58
2022/06/30 07:13:40;;;;;;;;;;;23.50;99.90;;;;;;4998365;28;20255;-58
2022/06/30 07:16:06;;;;;;;;;;;23.60;99.90;;;;;;4998213;28;19971;-57
2022/06/30 07:18:31;;;;;;;;;;;23.70;99.90;;;;;;4998005;28;19906;-58
2022/06/30 07:20:57;;;;;;;;;;;23.70;99.90;;;;;;4998098;28;19913;-58
2022/06/30 07:23:22;;;;;;;;;;;23.80;99.90;;;;;;4996447;28;19906;-58
2022/06/30 07:25:48;;;;;;;;;;;23.80;99.90;;;;;;4998276;28;19905;-57
2022/06/30 07:28:13;;;;;;;;;;;23.90;99.90;;;;;;4997460;28;19910;-58
2022/06/30 07:30:39;;;;;;;;;;;23.90;99.90;;;;;;4997588;28;20367;-59
2022/06/30 07:33:04;;;;;;;;;;;24.10;99.90;;;;;;4997350;28;20063;-58
2022/06/30 07:35:30;;;;;;;;;;;24.20;99.90;;;;;;4997448;28;19906;-59
2022/06/30 07:37:56;;;;;;;;;;;24.30;99.90;;;;;;4997699;28;19921;-58
2022/06/30 07:40:21;;;;;;;;;;;24.30;99.90;;;;;;5013266;28;19921;-58
2022/06/30 07:42:48;;;;;;;;;;;24.40;99.90;;;;;;4998672;28;19906;-57
2022/06/30 07:45:14;;;;;;;;;;;24.40;99.90;;;;;;4997896;28;20005;-58
2022/06/30 07:47:39;;;;;;;;;;;24.50;99.90;;;;;;4997201;28;20421;-58
2022/06/30 07:50:05;;;;;;;;;;;24.50;99.90;;;;;;4997388;28;19909;-58
2022/06/30 07:52:33;;;;;;;;;;;24.60;99.90;;;;;;4997138;28;19910;-59
2022/06/30 07:54:59;;;;;;;;;;;24.70;99.90;;;;;;4997418;28;19945;-58
2022/06/30 07:57:26;;;;;;;;;;;24.80;99.90;;;;;;4997164;28;19952;-57
2022/06/30 07:59:52;;;;;;;;;;;24.90;99.90;;;;;;4997578;28;19956;-58
2022/06/30 08:02:17;;;;;;;;;;;24.90;99.90;;;;;;4997690;28;20314;-58
2022/06/30 08:04:43;;;;;;;;;;;25.00;99.90;;;;;;4997090;28;19909;-57
2022/06/30 08:07:08;;;;;;;;;;;25.00;99.90;;;;;;4997592;28;20426;-58
2022/06/30 08:09:34;;;;;;;;;;;25.10;99.90;;;;;;4997186;28;20398;-58
2022/06/30 08:11:59;;;;;;;;;;;25.20;99.90;;;;;;4996576;28;19909;-59
2022/06/30 08:14:25;;;;;;;;;;;25.30;99.90;;;;;;4996695;28;19945;-58
2022/06/30 08:16:51;;;;;;;;;;;25.30;99.90;;;;;;4996710;28;19906;-59
2022/06/30 08:19:18;;;;;;;;;;;25.40;99.90;;;;;;4996363;28;19906;-58
2022/06/30 08:21:44;;;;;;;;;;;25.40;99.90;;;;;;4996790;28;19910;-58
2022/06/30 08:24:09;;;;;;;;;;;25.40;99.90;;;;;;4996525;28;19905;-58
2022/06/30 08:26:35;;;;;;;;;;;25.40;99.90;;;;;;4996237;28;19905;-58
2022/06/30 08:29:00;;;;;;;;;;;25.50;99.90;;;;;;4996380;28;20260;-58
2022/06/30 08:31:27;;;;;;;;;;;25.60;99.90;;;;;;4997428;28;19960;-58
2022/06/30 08:33:54;;;;;;;;;;;25.60;99.90;;;;;;4995237;28;19920;-57
2022/06/30 08:36:20;;;;;;;;;;;25.70;99.90;;;;;;4997090;28;19929;-58
2022/06/30 08:38:45;;;;;;;;;;;25.80;99.90;;;;;;4996360;28;19905;-58
2022/06/30 08:43:56;;;;;;;;;;;26.00;99.90;;;;;;4996083;28;19921;-58
2022/06/30 08:46:23;;;;;;;;;;;26.00;99.90;;;;;;4995893;28;19905;-58
2022/06/30 08:48:49;;;;;;;;;;;26.00;99.90;;;;;;4996078;28;19906;-58
2022/06/30 08:51:17;;;;;;;;;;;26.00;99.90;;;;;;4994673;28;19910;-58
2022/06/30 08:53:51;;;;;;;;;;;26.00;99.90;;;;;;4995825;28;19906;-58
2022/06/30 08:56:17;;;;;;;;;;;26.00;99.90;;;;;;4996087;28;19985;-58
2022/06/30 08:58:43;;;;;;;;;;;26.10;99.90;;;;;;4995636;28;19932;-56
2022/06/30 09:01:09;;;;;;;;;;;26.10;99.90;;;;;;4995696;28;20264;-57
2022/06/30 09:03:35;;;;;;;;;;;26.10;99.90;;;;;;4995120;28;20000;-58
2022/06/30 09:06:00;;;;;;;;;;;26.20;99.90;;;;;;5010438;28;19944;-58
2022/06/30 09:08:26;;;;;;;;;;;26.20;99.90;;;;;;4995395;28;19997;-58
2022/06/30 09:10:53;;;;;;;;;;;26.30;99.90;;;;;;5010160;28;19909;-58
2022/06/30 09:13:18;;;;;;;;;;;26.40;99.90;;;;;;4995109;28;19912;-58
2022/06/30 09:15:44;;;;;;;;;;;26.50;99.90;;;;;;4995275;28;19906;-59
2022/06/30 09:18:21;;;;;;;;;;;26.50;99.90;;;;;;4995075;28;19910;-58
2022/06/30 09:20:47;;;;;;;;;;;26.50;99.90;;;;;;4995669;28;19912;-59
2022/06/30 09:23:19;;;;;;;;;;;26.60;99.90;;;;;;4995870;28;19905;-58
2022/06/30 09:25:49;;;;;;;;;;;26.70;99.90;;;;;;5010287;28;19906;-58
2022/06/30 09:28:15;;;;;;;;;;;26.80;99.90;;;;;;4995318;28;19910;-58
2022/06/30 09:30:40;;;;;;;;;;;26.80;99.90;;;;;;4995411;28;19906;-58
2022/06/30 09:33:07;;;;;;;;;;;26.90;99.90;;;;;;4994784;28;20272;-58
2022/06/30 09:35:32;;;;;;;;;;;27.00;99.90;;;;;;4994775;28;19905;-58
2022/06/30 09:38:12;;;;;;;;;;;27.00;99.90;;;;;;4995192;28;19906;-58
2022/06/30 09:41:00;;;;;;;;;;;27.00;99.90;;;;;;4994923;28;20347;-57
2022/06/30 09:43:34;;;;;;;;;;;27.00;99.90;;;;;;4994837;28;19906;-57
2022/06/30 09:46:01;;;;;;;;;;;27.10;99.90;;;;;;4993405;28;20008;-57
2022/06/30 09:48:28;;;;;;;;;;;27.20;99.90;;;;;;4994589;28;20048;-55
2022/06/30 09:50:57;;;;;;;;;;;27.30;99.90;;;;;;4994859;28;19917;-55
2022/06/30 09:53:23;;;;;;;;;;;27.40;99.90;;;;;;5009875;28;19992;-61
2022/06/30 09:55:48;;;;;;;;;;;27.50;99.90;;;;;;4995175;28;20044;-55
2022/06/30 09:58:16;;;;;;;;;;;27.50;99.90;;;;;;4994654;28;20020;-56
2022/06/30 10:00:45;;;;;;;;;;;27.60;99.90;;;;;;4995122;28;20282;-56
2022/06/30 10:03:10;;;;;;;;;;;27.60;99.90;;;;;;4994519;28;19905;-56
2022/06/30 10:05:36;;;;;;;;;;;27.60;99.90;;;;;;4994542;28;20000;-57
2022/06/30 10:08:01;;;;;;;;;;;27.50;99.90;;;;;;4994859;28;19905;-56
2022/06/30 10:10:29;;;;;;;;;;;27.50;99.90;;;;;;4994431;28;19956;-58
2022/06/30 10:12:54;;;;;;;;;;;27.60;99.90;;;;;;4994172;28;19909;-56
2022/06/30 10:15:21;;;;;;;;;;;27.60;99.90;;;;;;4994900;28;19906;-57
2022/06/30 10:17:47;;;;;;;;;;;27.70;99.90;;;;;;4998450;28;19946;-57
2022/06/30 10:20:13;;;;;;;;;;;27.70;99.90;;;;;;4998719;28;19905;-57
2022/06/30 10:22:39;;;;;;;;;;;27.70;99.90;;;;;;5013483;28;20363;-56
2022/06/30 10:25:04;;;;;;;;;;;27.70;99.90;;;;;;4998600;28;19913;-56
2022/06/30 10:27:30;;;;;;;;;;;27.70;99.90;;;;;;4998255;28;19910;-57
2022/06/30 10:30:00;;;;;;;;;;;27.70;99.90;;;;;;4998393;28;19906;-57
2022/06/30 10:32:44;;;;;;;;;;;27.70;99.90;;;;;;4997924;28;19914;-58
2022/06/30 10:35:28;;;;;;;;;;;27.80;99.90;;;;;;4998374;28;19913;-57
2022/06/30 10:37:53;;;;;;;;;;;27.80;99.90;;;;;;4998234;28;19917;-56
2022/06/30 10:40:19;;;;;;;;;;;27.90;99.90;;;;;;4998601;28;19906;-57
2022/06/30 10:42:46;;;;;;;;;;;28.00;99.90;;;;;;4998219;28;20371;-57
2022/06/30 10:45:26;;;;;;;;;;;28.00;99.90;;;;;;4998335;28;19913;-56
2022/06/30 10:48:05;;;;;;;;;;;28.10;99.90;;;;;;4998128;28;19956;-56
2022/06/30 10:50:33;;;;;;;;;;;28.20;99.90;;;;;;4998056;28;20382;-57
2022/06/30 10:52:59;;;;;;;;;;;28.40;99.90;;;;;;4997631;28;19940;-56
2022/06/30 10:55:25;;;;;;;;;;;28.40;99.90;;;;;;4997899;28;19909;-57
2022/06/30 10:58:09;;;;;;;;;;;28.40;99.90;;;;;;5013143;28;19906;-57
2022/06/30 11:01:00;;;;;;;;;;;28.40;99.70;;;;;;4998182;28;19906;-57
2022/06/30 11:03:46;;;;;;;;;;;28.30;99.90;;;;;;4995869;28;19905;-57
2022/06/30 11:06:13;;;;;;;;;;;28.30;99.60;;;;;;4998470;28;19945;-57
2022/06/30 11:11:22;;;;;;;;;;;28.20;99.70;;;;;;4998486;28;19980;-57
2022/06/30 11:13:48;;;;;;;;;;;28.30;99.90;;;;;;4998151;28;19906;-58
2022/06/30 11:16:14;;;;;;;;;;;28.30;99.90;;;;;;4998089;28;19910;-58
2022/06/30 11:18:40;;;;;;;;;;;28.40;99.70;;;;;;4998167;28;19933;-57
2022/06/30 11:21:06;;;;;;;;;;;28.50;98.80;;;;;;4998691;28;19914;-57
2022/06/30 11:23:45;;;;;;;;;;;28.50;99.10;;;;;;4993162;28;19909;-57
2022/06/30 11:28:57;;;;;;;;;;;28.60;98.20;;;;;;4985962;28;19997;-57
2022/06/30 11:31:23;;;;;;;;;;;28.60;98.30;;;;;;4991705;28;19953;-58
2022/06/30 11:33:57;;;;;;;;;;;28.60;98.40;;;;;;4998335;28;19917;-57
2022/06/30 11:36:22;;;;;;;;;;;28.70;97.90;;;;;;4995724;28;19909;-58
2022/06/30 11:38:51;;;;;;;;;;;28.70;97.10;;;;;;4982010;28;19957;-58
2022/06/30 11:44:12;;;;;;;;;;;28.70;96.60;;;;;;4976195;28;20467;-57
2022/06/30 11:46:56;;;;;;;;;;;28.80;96.00;;;;;;4976668;28;19992;-58
2022/06/30 11:49:22;;;;;;;;;;;28.70;95.20;;;;;;4987347;28;20290;-59
2022/06/30 11:51:47;;;;;;;;;;;28.70;95.20;;;;;;4980850;28;19953;-59
2022/06/30 11:54:14;;;;;;;;;;;28.60;95.70;;;;;;4985525;28;20292;-58
2022/06/30 11:56:43;;;;;;;;;;;28.70;95.70;;;;;;4977645;28;19906;-57
2022/06/30 11:59:08;;;;;;;;;;;28.60;95.40;;;;;;4982717;28;19917;-57
2022/06/30 12:01:34;;;;;;;;;;;28.70;96.00;;;;;;4987744;28;19913;-56
2022/06/30 12:04:11;;;;;;;;;;;28.70;95.70;;;;;;4994801;28;19909;-57
2022/06/30 12:06:37;;;;;;;;;;;28.80;95.30;;;;;;4995772;28;19906;-57
2022/06/30 12:09:02;;;;;;;;;;;28.90;94.60;;;;;;4995157;28;19997;-58
2022/06/30 12:11:30;;;;;;;;;;;29.00;94.90;;;;;;5002828;28;19988;-57
2022/06/30 12:13:56;;;;;;;;;;;28.90;95.40;;;;;;4994978;28;20016;-54
2022/06/30 12:16:21;;;;;;;;;;;29.00;95.20;;;;;;4996278;28;19945;-57
2022/06/30 12:18:50;;;;;;;;;;;28.90;94.90;;;;;;4998068;28;19933;-57
2022/06/30 12:21:16;;;;;;;;;;;28.90;95.20;;;;;;4997533;28;19917;-55
2022/06/30 12:23:42;;;;;;;;;;;28.90;95.50;;;;;;4997101;28;19906;-57
2022/06/30 12:26:08;;;;;;;;;;;29.00;95.40;;;;;;4997254;28;19956;-56
2022/06/30 12:28:43;;;;;;;;;;;29.00;95.40;;;;;;4997797;28;20048;-57
2022/06/30 12:31:08;;;;;;;;;;;29.10;95.20;;;;;;4996330;28;20355;-57
2022/06/30 12:33:38;;;;;;;;;;;29.30;94.80;;;;;;4996139;28;19920;-57
2022/06/30 12:36:04;;;;;;;;;;;29.30;94.60;;;;;;5001782;28;19949;-56
2022/06/30 12:38:30;;;;;;;;;;;29.30;95.00;;;;;;4994102;28;19933;-56
2022/06/30 12:40:56;;;;;;;;;;;29.30;94.90;;;;;;4995197;28;19912;-56
2022/06/30 12:43:21;;;;;;;;;;;29.30;95.10;;;;;;4995395;28;19906;-56
2022/06/30 12:45:55;;;;;;;;;;;29.40;95.00;;;;;;4994332;28;19905;-57
2022/06/30 12:48:39;;;;;;;;;;;29.40;95.50;;;;;;4995898;28;19956;-57
2022/06/30 12:51:05;;;;;;;;;;;29.50;94.70;;;;;;5002573;28;19905;-57
2022/06/30 12:53:31;;;;;;;;;;;29.50;94.90;;;;;;4995616;28;19912;-57
2022/06/30 12:56:00;;;;;;;;;;;29.70;95.20;;;;;;4995591;28;19912;-56
2022/06/30 12:58:25;;;;;;;;;;;29.70;95.20;;;;;;4993663;28;19945;-57
2022/06/30 13:00:55;;;;;;;;;;;29.80;95.00;;;;;;4994903;28;19956;-57
2022/06/30 13:03:20;;;;;;;;;;;29.90;95.00;;;;;;4994281;28;19912;-57
2022/06/30 13:05:46;;;;;;;;;;;29.90;95.30;;;;;;4994934;28;20357;-58
2022/06/30 13:08:11;;;;;;;;;;;29.90;95.40;;;;;;4995651;28;19957;-58
2022/06/30 13:13:21;;;;;;;;;;;30.10;94.50;;;;;;4996129;28;19968;-57
2022/06/30 13:15:46;;;;;;;;;;;30.10;94.30;;;;;;4995350;28;20282;-58
2022/06/30 13:18:12;;;;;;;;;;;30.10;94.80;;;;;;4995602;28;20385;-56
2022/06/30 13:20:38;;;;;;;;;;;30.10;95.20;;;;;;4994885;28;19906;-56
2022/06/30 13:23:03;;;;;;;;;;;30.10;95.60;;;;;;4993615;28;20052;-55
2022/06/30 13:25:29;;;;;;;;;;;30.20;95.80;;;;;;4994841;28;19906;-58
2022/06/30 13:27:54;;;;;;;;;;;30.30;95.40;;;;;;4993842;28;19906;-57
2022/06/30 13:30:20;;;;;;;;;;;30.50;95.40;;;;;;4994918;28;20052;-58
2022/06/30 13:32:45;;;;;;;;;;;30.60;95.20;;;;;;4994342;28;19913;-58
2022/06/30 13:35:11;;;;;;;;;;;30.70;95.40;;;;;;4994576;28;19957;-56
2022/06/30 13:37:37;;;;;;;;;;;30.80;95.30;;;;;;4994238;28;19921;-57
2022/06/30 13:40:03;;;;;;;;;;;30.80;95.10;;;;;;4994222;28;19914;-57
2022/06/30 13:42:29;;;;;;;;;;;30.80;95.20;;;;;;4994119;28;19905;-57
2022/06/30 13:44:54;;;;;;;;;;;30.80;95.00;;;;;;4993557;28;19933;-56
2022/06/30 13:47:20;;;;;;;;;;;30.70;94.80;;;;;;4994349;28;19912;-57
2022/06/30 13:49:46;;;;;;;;;;;30.60;95.00;;;;;;4993554;28;19905;-57
2022/06/30 13:52:11;;;;;;;;;;;30.40;95.00;;;;;;4994203;28;19916;-56
2022/06/30 13:54:38;;;;;;;;;;;30.30;95.30;;;;;;4994178;28;19913;-57
2022/06/30 13:57:04;;;;;;;;;;;30.30;95.30;;;;;;4993058;28;19914;-57
2022/06/30 13:59:30;;;;;;;;;;;30.20;95.00;;;;;;4994288;28;19905;-57
2022/06/30 14:01:56;;;;;;;;;;;30.00;95.30;;;;;;4994431;28;19913;-57
2022/06/30 14:04:21;;;;;;;;;;;30.00;95.00;;;;;;4993893;28;20303;-57
2022/06/30 14:06:47;;;;;;;;;;;29.80;95.00;;;;;;4994037;28;19905;-56
2022/06/30 14:09:12;;;;;;;;;;;29.70;95.30;;;;;;5000774;28;19906;-56
2022/06/30 14:11:38;;;;;;;;;;;29.60;95.50;;;;;;4991592;28;19916;-56
2022/06/30 14:14:04;;;;;;;;;;;29.50;95.60;;;;;;4993802;28;20359;-55
2022/06/30 14:16:30;;;;;;;;;;;29.30;95.40;;;;;;4993678;28;20413;-56
2022/06/30 14:18:57;;;;;;;;;;;29.20;95.70;;;;;;4993227;28;19906;-57
2022/06/30 14:21:22;;;;;;;;;;;29.20;95.90;;;;;;4993031;28;20367;-51
2022/06/30 14:23:48;;;;;;;;;;;29.20;95.90;;;;;;4993379;28;19956;-56
2022/06/30 14:26:15;;;;;;;;;;;29.20;96.10;;;;;;4993531;28;19906;-57
2022/06/30 14:28:40;;;;;;;;;;;29.20;95.90;;;;;;4993226;28;20000;-56
2022/06/30 14:31:06;;;;;;;;;;;29.20;95.80;;;;;;4993353;28;19960;-55
2022/06/30 14:33:31;;;;;;;;;;;29.20;95.90;;;;;;4992839;28;19914;-55
2022/06/30 14:35:57;;;;;;;;;;;29.20;95.70;;;;;;4994489;28;19913;-56